sensor_id;sensor_type;location;lat;lon;timestamp;pressure;altitude;pressure_sealevel;temperature;humidity
5062;BME280;2351;50.812;12.872;2023-02-16T00:02:16;98730.38;;;1.98;63.57
5062;BME280;2351;50.812;12.872;2023-02-16T00:04:48;98737.31;;;1.99;63.11
5062;BME280;2351;50.812;12.872;2023-02-16T00:07:19;98732.09;;;1.99;63.36
5062;BME280;2351;50.812;12.872;2023-02-16T00:09:52;98733.19;;;1.93;63.79
5062;BME280;2351;50.812;12.872;2023-02-16T00:12:24;98733.13;;;1.95;64.08
5062;BME280;2351;50.812;12.872;2023-02-16T00:15:16;98737.53;;;1.93;63.42
5062;BME280;2351;50.812;12.872;2023-02-16T00:17:48;98732.44;;;1.90;64.13
5062;BME280;2351;50.812;12.872;2023-02-16T00:20:20;98735.94;;;1.89;65.05
5062;BME280;2351;50.812;12.872;2023-02-16T00:22:52;98733.13;;;1.95;64.87
5062;BME280;2351;50.812;12.872;2023-02-16T00:25:25;98725.28;;;1.95;65.00
5062;BME280;2351;50.812;12.872;2023-02-16T00:27:57;98733.97;;;1.95;64.72
5062;BME280;2351;50.812;12.872;2023-02-16T00:30:28;98736.47;;;1.99;64.72
5062;BME280;2351;50.812;12.872;2023-02-16T00:33:00;98732.22;;;1.96;64.85
5062;BME280;2351;50.812;12.872;2023-02-16T00:35:32;98725.09;;;2.00;65.18
5062;BME280;2351;50.812;12.872;2023-02-16T00:38:03;98732.81;;;2.03;64.84
5062;BME280;2351;50.812;12.872;2023-02-16T00:40:36;98730.97;;;2.06;65.41
5062;BME280;2351;50.812;12.872;2023-02-16T00:43:12;98737.75;;;2.10;65.08
5062;BME280;2351;50.812;12.872;2023-02-16T00:45:52;98730.84;;;2.09;66.02
5062;BME280;2351;50.812;12.872;2023-02-16T00:48:24;98721.03;;;2.15;65.86
5062;BME280;2351;50.812;12.872;2023-02-16T00:50:55;98726.88;;;2.21;65.83
5062;BME280;2351;50.812;12.872;2023-02-16T00:53:27;98729.13;;;2.31;65.94
5062;BME280;2351;50.812;12.872;2023-02-16T00:56:00;98720.19;;;2.36;65.81
5062;BME280;2351;50.812;12.872;2023-02-16T00:58:32;98722.44;;;2.46;65.66
5062;BME280;2351;50.812;12.872;2023-02-16T01:01:07;98726.69;;;2.48;65.72
5062;BME280;2351;50.812;12.872;2023-02-16T01:03:40;98728.16;;;2.55;65.21
5062;BME280;2351;50.812;12.872;2023-02-16T01:06:11;98728.19;;;2.54;65.40
5062;BME280;2351;50.812;12.872;2023-02-16T01:09:17;98716.91;;;2.53;65.47
5062;BME280;2351;50.812;12.872;2023-02-16T01:12:12;98715.13;;;2.54;65.51
5062;BME280;2351;50.812;12.872;2023-02-16T01:14:48;98712.50;;;2.54;65.12
5062;BME280;2351;50.812;12.872;2023-02-16T01:17:22;98708.47;;;2.47;64.98
5062;BME280;2351;50.812;12.872;2023-02-16T01:19:54;98714.91;;;2.38;65.16
5062;BME280;2351;50.812;12.872;2023-02-16T01:22:25;98705.81;;;2.26;65.52
5062;BME280;2351;50.812;12.872;2023-02-16T01:25:02;98711.16;;;2.23;65.64
5062;BME280;2351;50.812;12.872;2023-02-16T01:27:37;98704.53;;;2.14;65.42
5062;BME280;2351;50.812;12.872;2023-02-16T01:30:12;98710.84;;;2.08;66.85
5062;BME280;2351;50.812;12.872;2023-02-16T01:32:44;98706.53;;;2.07;66.83
5062;BME280;2351;50.812;12.872;2023-02-16T01:35:22;98703.16;;;2.05;66.63
5062;BME280;2351;50.812;12.872;2023-02-16T01:37:54;98695.94;;;2.10;66.95
5062;BME280;2351;50.812;12.872;2023-02-16T01:40:35;98694.81;;;2.18;67.33
5062;BME280;2351;50.812;12.872;2023-02-16T01:43:17;98705.97;;;2.21;67.55
5062;BME280;2351;50.812;12.872;2023-02-16T01:45:54;98695.38;;;2.26;67.49
5062;BME280;2351;50.812;12.872;2023-02-16T01:48:31;98699.56;;;2.30;67.18
5062;BME280;2351;50.812;12.872;2023-02-16T01:51:05;98697.84;;;2.29;67.00
5062;BME280;2351;50.812;12.872;2023-02-16T01:53:39;98693.41;;;2.31;66.96
5062;BME280;2351;50.812;12.872;2023-02-16T01:56:18;98696.88;;;2.32;67.04
5062;BME280;2351;50.812;12.872;2023-02-16T01:58:54;98691.72;;;2.30;67.46
5062;BME280;2351;50.812;12.872;2023-02-16T02:01:41;98704.72;;;2.32;67.09
5062;BME280;2351;50.812;12.872;2023-02-16T02:04:24;98696.94;;;2.30;67.43
5062;BME280;2351;50.812;12.872;2023-02-16T02:07:18;98697.69;;;2.32;67.57
5062;BME280;2351;50.812;12.872;2023-02-16T02:09:56;98702.16;;;2.30;67.56
5062;BME280;2351;50.812;12.872;2023-02-16T02:12:36;98701.50;;;2.25;67.47
5062;BME280;2351;50.812;12.872;2023-02-16T02:15:14;98704.34;;;2.19;68.13
5062;BME280;2351;50.812;12.872;2023-02-16T02:17:47;98701.97;;;2.13;67.32
5062;BME280;2351;50.812;12.872;2023-02-16T02:20:22;98698.72;;;2.07;67.83
5062;BME280;2351;50.812;12.872;2023-02-16T02:23:23;98699.75;;;2.03;67.73
5062;BME280;2351;50.812;12.872;2023-02-16T02:29:39;98690.53;;;1.93;68.08
5062;BME280;2351;50.812;12.872;2023-02-16T02:32:19;98699.16;;;1.95;68.17
5062;BME280;2351;50.812;12.872;2023-02-16T02:35:00;98699.94;;;1.99;68.05
5062;BME280;2351;50.812;12.872;2023-02-16T02:37:40;98693.91;;;1.97;68.48
5062;BME280;2351;50.812;12.872;2023-02-16T02:40:20;98702.69;;;1.94;68.20
5062;BME280;2351;50.812;12.872;2023-02-16T02:43:01;98699.97;;;1.97;68.40
5062;BME280;2351;50.812;12.872;2023-02-16T02:45:39;98699.06;;;1.98;68.17
5062;BME280;2351;50.812;12.872;2023-02-16T02:48:12;98698.22;;;1.98;68.60
5062;BME280;2351;50.812;12.872;2023-02-16T02:50:48;98700.75;;;1.99;68.62
5062;BME280;2351;50.812;12.872;2023-02-16T02:53:41;98700.53;;;2.05;68.20
5062;BME280;2351;50.812;12.872;2023-02-16T02:56:15;98701.47;;;2.03;68.54
5062;BME280;2351;50.812;12.872;2023-02-16T02:59:07;98707.75;;;1.99;68.59
5062;BME280;2351;50.812;12.872;2023-02-16T03:01:59;98711.50;;;1.91;68.21
5062;BME280;2351;50.812;12.872;2023-02-16T03:04:34;98706.47;;;1.87;68.58
5062;BME280;2351;50.812;12.872;2023-02-16T03:07:07;98696.25;;;1.80;68.30
5062;BME280;2351;50.812;12.872;2023-02-16T03:09:40;98700.88;;;1.74;68.47
5062;BME280;2351;50.812;12.872;2023-02-16T03:12:12;98701.19;;;1.64;67.92
5062;BME280;2351;50.812;12.872;2023-02-16T03:15:03;98698.91;;;1.55;68.36
5062;BME280;2351;50.812;12.872;2023-02-16T03:17:38;98693.94;;;1.49;68.13
5062;BME280;2351;50.812;12.872;2023-02-16T03:20:29;98697.75;;;1.40;67.93
5062;BME280;2351;50.812;12.872;2023-02-16T03:23:18;98697.25;;;1.30;68.24
5062;BME280;2351;50.812;12.872;2023-02-16T03:26:08;98704.66;;;1.17;67.90
5062;BME280;2351;50.812;12.872;2023-02-16T03:28:59;98719.00;;;1.04;68.32
5062;BME280;2351;50.812;12.872;2023-02-16T03:31:53;98719.44;;;0.92;68.18
5062;BME280;2351;50.812;12.872;2023-02-16T03:34:28;98717.09;;;0.84;68.48
5062;BME280;2351;50.812;12.872;2023-02-16T03:37:01;98717.38;;;0.76;68.42
5062;BME280;2351;50.812;12.872;2023-02-16T03:39:33;98704.47;;;0.71;68.57
5062;BME280;2351;50.812;12.872;2023-02-16T03:42:24;98709.91;;;0.65;68.04
5062;BME280;2351;50.812;12.872;2023-02-16T03:44:56;98716.31;;;0.55;68.39
5062;BME280;2351;50.812;12.872;2023-02-16T03:47:28;98727.03;;;0.45;68.67
5062;BME280;2351;50.812;12.872;2023-02-16T03:50:01;98722.97;;;0.37;69.00
5062;BME280;2351;50.812;12.872;2023-02-16T03:52:33;98711.16;;;0.26;69.00
5062;BME280;2351;50.812;12.872;2023-02-16T03:55:05;98710.44;;;0.21;68.41
5062;BME280;2351;50.812;12.872;2023-02-16T03:57:37;98707.00;;;0.21;68.99
5062;BME280;2351;50.812;12.872;2023-02-16T04:00:09;98708.75;;;0.20;68.83
5062;BME280;2351;50.812;12.872;2023-02-16T04:02:41;98705.41;;;0.15;69.16
5062;BME280;2351;50.812;12.872;2023-02-16T04:05:14;98708.28;;;0.07;68.70
5062;BME280;2351;50.812;12.872;2023-02-16T04:07:46;98717.13;;;0.02;69.49
5062;BME280;2351;50.812;12.872;2023-02-16T04:10:18;98713.88;;;-0.05;69.60
5062;BME280;2351;50.812;12.872;2023-02-16T04:12:50;98711.50;;;-0.13;69.76
5062;BME280;2351;50.812;12.872;2023-02-16T04:15:23;98702.97;;;-0.18;69.65
5062;BME280;2351;50.812;12.872;2023-02-16T04:17:56;98705.75;;;-0.24;69.12
5062;BME280;2351;50.812;12.872;2023-02-16T04:20:31;98698.00;;;-0.26;70.30
5062;BME280;2351;50.812;12.872;2023-02-16T04:23:03;98694.34;;;-0.20;70.24
5062;BME280;2351;50.812;12.872;2023-02-16T04:25:35;98700.31;;;-0.17;70.24
5062;BME280;2351;50.812;12.872;2023-02-16T04:28:07;98694.22;;;-0.16;69.96
5062;BME280;2351;50.812;12.872;2023-02-16T04:30:38;98693.41;;;-0.18;70.19
5062;BME280;2351;50.812;12.872;2023-02-16T04:33:10;98699.59;;;-0.22;70.40
5062;BME280;2351;50.812;12.872;2023-02-16T04:35:43;98694.44;;;-0.23;70.68
5062;BME280;2351;50.812;12.872;2023-02-16T04:38:15;98695.44;;;-0.27;70.83
5062;BME280;2351;50.812;12.872;2023-02-16T04:40:47;98696.38;;;-0.30;70.60
5062;BME280;2351;50.812;12.872;2023-02-16T04:43:19;98707.84;;;-0.36;71.06
5062;BME280;2351;50.812;12.872;2023-02-16T04:45:50;98703.63;;;-0.40;71.00
5062;BME280;2351;50.812;12.872;2023-02-16T04:48:22;98700.38;;;-0.48;71.08
5062;BME280;2351;50.812;12.872;2023-02-16T04:50:55;98710.94;;;-0.54;71.35
5062;BME280;2351;50.812;12.872;2023-02-16T04:53:27;98705.00;;;-0.58;70.94
5062;BME280;2351;50.812;12.872;2023-02-16T04:55:59;98701.72;;;-0.65;71.48
5062;BME280;2351;50.812;12.872;2023-02-16T04:58:30;98706.25;;;-0.71;72.42
5062;BME280;2351;50.812;12.872;2023-02-16T05:01:02;98710.66;;;-0.75;72.30
5062;BME280;2351;50.812;12.872;2023-02-16T05:03:34;98702.97;;;-0.78;72.16
5062;BME280;2351;50.812;12.872;2023-02-16T05:06:07;98701.06;;;-0.73;71.95
5062;BME280;2351;50.812;12.872;2023-02-16T05:08:39;98697.50;;;-0.69;71.98
5062;BME280;2351;50.812;12.872;2023-02-16T05:11:11;98697.50;;;-0.69;72.29
5062;BME280;2351;50.812;12.872;2023-02-16T05:14:00;98701.06;;;-0.73;72.78
5062;BME280;2351;50.812;12.872;2023-02-16T05:16:49;98703.66;;;-0.71;73.21
5062;BME280;2351;50.812;12.872;2023-02-16T05:19:21;98701.97;;;-0.74;73.87
5062;BME280;2351;50.812;12.872;2023-02-16T05:21:54;98707.31;;;-0.79;73.17
5062;BME280;2351;50.812;12.872;2023-02-16T05:24:26;98706.63;;;-0.85;73.26
5062;BME280;2351;50.812;12.872;2023-02-16T05:26:58;98703.28;;;-0.91;73.19
5062;BME280;2351;50.812;12.872;2023-02-16T05:29:29;98697.28;;;-0.93;73.45
5062;BME280;2351;50.812;12.872;2023-02-16T05:32:02;98709.34;;;-0.90;73.84
5062;BME280;2351;50.812;12.872;2023-02-16T05:34:33;98705.88;;;-0.89;75.78
5062;BME280;2351;50.812;12.872;2023-02-16T05:37:06;98711.81;;;-0.85;75.26
5062;BME280;2351;50.812;12.872;2023-02-16T05:39:39;98705.72;;;-0.84;77.23
5062;BME280;2351;50.812;12.872;2023-02-16T05:42:11;98706.63;;;-0.85;77.51
5062;BME280;2351;50.812;12.872;2023-02-16T05:44:43;98704.84;;;-0.83;77.90
5062;BME280;2351;50.812;12.872;2023-02-16T05:47:15;98706.63;;;-0.85;78.56
5062;BME280;2351;50.812;12.872;2023-02-16T05:49:46;98708.41;;;-0.87;78.39
5062;BME280;2351;50.812;12.872;2023-02-16T05:52:19;98710.94;;;-0.86;79.64
5062;BME280;2351;50.812;12.872;2023-02-16T05:54:51;98712.66;;;-0.85;78.40
5062;BME280;2351;50.812;12.872;2023-02-16T05:57:23;98711.75;;;-0.84;78.79
5062;BME280;2351;50.812;12.872;2023-02-16T05:59:54;98706.63;;;-0.85;77.98
5062;BME280;2351;50.812;12.872;2023-02-16T06:02:26;98707.50;;;-0.86;77.91
5062;BME280;2351;50.812;12.872;2023-02-16T06:04:58;98706.66;;;-0.87;78.55
5062;BME280;2351;50.812;12.872;2023-02-16T06:07:31;98703.22;;;-0.87;78.63
5062;BME280;2351;50.812;12.872;2023-02-16T06:10:03;98698.00;;;-0.87;78.85
5062;BME280;2351;50.812;12.872;2023-02-16T06:12:35;98698.84;;;-0.87;78.75
5062;BME280;2351;50.812;12.872;2023-02-16T06:15:07;98692.72;;;-0.84;79.19
5062;BME280;2351;50.812;12.872;2023-02-16T06:17:39;98698.53;;;-0.74;79.43
5062;BME280;2351;50.812;12.872;2023-02-16T06:20:17;98698.97;;;-0.60;80.45
5062;BME280;2351;50.812;12.872;2023-02-16T06:22:56;98701.09;;;-0.43;80.43
5062;BME280;2351;50.812;12.872;2023-02-16T06:25:28;98691.03;;;-0.25;82.62
5062;BME280;2351;50.812;12.872;2023-02-16T06:28:00;98697.47;;;-0.09;81.48
5062;BME280;2351;50.812;12.872;2023-02-16T06:30:31;98690.19;;;0.03;82.18
5062;BME280;2351;50.812;12.872;2023-02-16T06:33:04;98696.81;;;0.13;82.26
5062;BME280;2351;50.812;12.872;2023-02-16T06:35:36;98693.84;;;0.24;81.97
5062;BME280;2351;50.812;12.872;2023-02-16T06:38:09;98694.53;;;0.31;82.17
5062;BME280;2351;50.812;12.872;2023-02-16T06:40:40;98699.44;;;0.40;82.45
5062;BME280;2351;50.812;12.872;2023-02-16T06:43:12;98693.13;;;0.47;83.39
5062;BME280;2351;50.812;12.872;2023-02-16T06:45:44;98705.09;;;0.53;83.64
5062;BME280;2351;50.812;12.872;2023-02-16T06:48:16;98707.50;;;0.59;82.94
5062;BME280;2351;50.812;12.872;2023-02-16T06:50:48;98707.34;;;0.64;83.79
5062;BME280;2351;50.812;12.872;2023-02-16T06:53:21;98702.78;;;0.70;83.72
5062;BME280;2351;50.812;12.872;2023-02-16T06:55:53;98710.31;;;0.78;83.56
5062;BME280;2351;50.812;12.872;2023-02-16T06:58:24;98711.81;;;0.85;83.40
5062;BME280;2351;50.812;12.872;2023-02-16T07:00:56;98714.22;;;0.92;83.92
5062;BME280;2351;50.812;12.872;2023-02-16T07:03:28;98711.28;;;1.01;85.09
5062;BME280;2351;50.812;12.872;2023-02-16T07:05:59;98707.25;;;1.17;84.62
5062;BME280;2351;50.812;12.872;2023-02-16T07:08:33;98705.97;;;1.53;84.96
5062;BME280;2351;50.812;12.872;2023-02-16T07:11:04;98702.22;;;2.06;86.57
5062;BME280;2351;50.812;12.872;2023-02-16T07:13:36;98698.69;;;2.52;86.07
5062;BME280;2351;50.812;12.872;2023-02-16T07:16:08;98697.78;;;3.15;87.31
5062;BME280;2351;50.812;12.872;2023-02-16T07:18:40;98695.84;;;4.16;90.63
5062;BME280;2351;50.812;12.872;2023-02-16T07:21:12;98691.34;;;4.90;90.30
5062;BME280;2351;50.812;12.872;2023-02-16T07:23:45;98685.44;;;5.69;91.32
5062;BME280;2351;50.812;12.872;2023-02-16T07:26:17;98689.38;;;6.73;92.66
5062;BME280;2351;50.812;12.872;2023-02-16T07:28:49;98686.25;;;7.69;91.88
5062;BME280;2351;50.812;12.872;2023-02-16T07:31:21;98688.59;;;8.16;89.80
5062;BME280;2351;50.812;12.872;2023-02-16T07:33:55;98692.38;;;8.11;86.85
5062;BME280;2351;50.812;12.872;2023-02-16T07:36:27;98691.78;;;7.79;84.90
5062;BME280;2351;50.812;12.872;2023-02-16T07:39:00;98686.63;;;7.34;81.66
5062;BME280;2351;50.812;12.872;2023-02-16T07:41:32;98683.88;;;7.06;79.85
5062;BME280;2351;50.812;12.872;2023-02-16T07:44:04;98682.63;;;6.83;80.67
5062;BME280;2351;50.812;12.872;2023-02-16T07:46:35;98683.66;;;6.81;80.89
5062;BME280;2351;50.812;12.872;2023-02-16T07:49:07;98685.09;;;7.01;81.74
5062;BME280;2351;50.812;12.872;2023-02-16T07:51:39;98680.81;;;7.14;81.38
5062;BME280;2351;50.812;12.872;2023-02-16T07:54:12;98686.63;;;7.34;81.59
5062;BME280;2351;50.812;12.872;2023-02-16T07:56:43;98684.75;;;7.50;80.98
5062;BME280;2351;50.812;12.872;2023-02-16T07:59:16;98681.00;;;7.54;79.55
5062;BME280;2351;50.812;12.872;2023-02-16T08:01:47;98678.94;;;7.60;77.72
5062;BME280;2351;50.812;12.872;2023-02-16T08:04:19;98680.78;;;7.43;75.22
5062;BME280;2351;50.812;12.872;2023-02-16T08:06:51;98685.50;;;7.23;72.95
5062;BME280;2351;50.812;12.872;2023-02-16T08:09:24;98681.44;;;7.18;71.77
5062;BME280;2351;50.812;12.872;2023-02-16T08:11:56;98673.66;;;7.31;73.21
5062;BME280;2351;50.812;12.872;2023-02-16T08:14:27;98682.31;;;7.47;73.32
5062;BME280;2351;50.812;12.872;2023-02-16T08:16:59;98686.59;;;7.63;72.56
5062;BME280;2351;50.812;12.872;2023-02-16T08:19:31;98678.63;;;7.64;72.26
5062;BME280;2351;50.812;12.872;2023-02-16T08:22:03;98683.59;;;7.69;71.42
5062;BME280;2351;50.812;12.872;2023-02-16T08:24:37;98678.59;;;7.79;71.85
5062;BME280;2351;50.812;12.872;2023-02-16T08:27:09;98682.16;;;7.92;71.46
5062;BME280;2351;50.812;12.872;2023-02-16T08:29:41;98679.59;;;8.05;70.26
5062;BME280;2351;50.812;12.872;2023-02-16T08:32:13;98678.44;;;8.09;69.05
5062;BME280;2351;50.812;12.872;2023-02-16T08:34:45;98675.31;;;8.17;69.14
5062;BME280;2351;50.812;12.872;2023-02-16T08:37:16;98681.81;;;8.39;69.62
5062;BME280;2351;50.812;12.872;2023-02-16T08:39:49;98679.25;;;8.52;66.65
5062;BME280;2351;50.812;12.872;2023-02-16T08:42:21;98679.41;;;8.36;60.90
5062;BME280;2351;50.812;12.872;2023-02-16T08:44:53;98664.91;;;8.01;61.78
5062;BME280;2351;50.812;12.872;2023-02-16T08:47:24;98666.84;;;7.70;60.70
5062;BME280;2351;50.812;12.872;2023-02-16T08:49:56;98670.06;;;7.46;60.54
5062;BME280;2351;50.812;12.872;2023-02-16T08:52:28;98668.38;;;7.31;61.55
5062;BME280;2351;50.812;12.872;2023-02-16T08:55:01;98670.56;;;7.24;60.87
5062;BME280;2351;50.812;12.872;2023-02-16T08:57:33;98662.56;;;7.26;60.72
5062;BME280;2351;50.812;12.872;2023-02-16T09:00:06;98667.53;;;7.30;61.02
5062;BME280;2351;50.812;12.872;2023-02-16T09:02:57;98670.25;;;7.29;61.17
5062;BME280;2351;50.812;12.872;2023-02-16T09:05:30;98667.81;;;7.26;61.04
5062;BME280;2351;50.812;12.872;2023-02-16T09:08:01;98664.44;;;7.23;61.41
5062;BME280;2351;50.812;12.872;2023-02-16T09:10:35;98670.44;;;7.40;62.17
5062;BME280;2351;50.812;12.872;2023-02-16T09:13:06;98661.38;;;7.73;64.57
5062;BME280;2351;50.812;12.872;2023-02-16T09:15:40;98662.03;;;8.19;63.07
5062;BME280;2351;50.812;12.872;2023-02-16T09:18:12;98670.81;;;8.32;61.10
5062;BME280;2351;50.812;12.872;2023-02-16T09:20:45;98665.03;;;8.27;59.58
5062;BME280;2351;50.812;12.872;2023-02-16T09:23:17;98671.03;;;8.29;60.18
5062;BME280;2351;50.812;12.872;2023-02-16T09:25:51;98681.53;;;8.43;60.31
5062;BME280;2351;50.812;12.872;2023-02-16T09:28:22;98675.09;;;8.75;62.27
5062;BME280;2351;50.812;12.872;2023-02-16T09:30:54;98667.94;;;9.16;60.96
5062;BME280;2351;50.812;12.872;2023-02-16T09:33:26;98670.06;;;9.37;60.15
5062;BME280;2351;50.812;12.872;2023-02-16T09:35:57;98672.66;;;9.62;60.67
5062;BME280;2351;50.812;12.872;2023-02-16T09:38:29;98672.66;;;10.13;59.97
5062;BME280;2351;50.812;12.872;2023-02-16T09:41:06;98673.31;;;10.28;57.97
5062;BME280;2351;50.812;12.872;2023-02-16T09:43:44;98683.66;;;10.31;55.65
5062;BME280;2351;50.812;12.872;2023-02-16T09:46:20;98679.16;;;10.20;56.31
5062;BME280;2351;50.812;12.872;2023-02-16T09:48:53;98679.34;;;10.30;54.61
5062;BME280;2351;50.812;12.872;2023-02-16T09:51:28;98673.59;;;10.36;56.24
5062;BME280;2351;50.812;12.872;2023-02-16T09:54:14;98673.72;;;10.59;56.24
5062;BME280;2351;50.812;12.872;2023-02-16T09:56:55;98673.53;;;10.73;54.63
5062;BME280;2351;50.812;12.872;2023-02-16T09:59:40;98671.63;;;10.75;53.40
5062;BME280;2351;50.812;12.872;2023-02-16T10:02:25;98676.44;;;10.70;52.67
5062;BME280;2351;50.812;12.872;2023-02-16T10:05:11;98681.63;;;10.47;51.98
5062;BME280;2351;50.812;12.872;2023-02-16T10:07:55;98676.69;;;10.30;50.64
5062;BME280;2351;50.812;12.872;2023-02-16T10:10:37;98679.16;;;10.20;51.93
5062;BME280;2351;50.812;12.872;2023-02-16T10:13:22;98672.41;;;10.16;50.69
5062;BME280;2351;50.812;12.872;2023-02-16T10:15:57;98672.31;;;10.17;52.49
5062;BME280;2351;50.812;12.872;2023-02-16T10:18:32;98666.72;;;10.09;51.30
5062;BME280;2351;50.812;12.872;2023-02-16T10:21:12;98677.97;;;10.00;51.29
5062;BME280;2351;50.812;12.872;2023-02-16T10:23:48;98667.84;;;9.93;51.01
5062;BME280;2351;50.812;12.872;2023-02-16T10:26:27;98670.38;;;9.95;51.44
5062;BME280;2351;50.812;12.872;2023-02-16T10:29:05;98666.75;;;9.96;51.37
5062;BME280;2351;50.812;12.872;2023-02-16T10:31:39;98669.84;;;10.03;51.64
5062;BME280;2351;50.812;12.872;2023-02-16T10:34:20;98670.22;;;10.09;51.32
5062;BME280;2351;50.812;12.872;2023-02-16T10:37:15;98669.50;;;10.07;50.55
5062;BME280;2351;50.812;12.872;2023-02-16T10:39:57;98663.28;;;10.20;52.19
5062;BME280;2351;50.812;12.872;2023-02-16T10:42:39;98674.03;;;10.30;51.58
5062;BME280;2351;50.812;12.872;2023-02-16T10:45:20;98666.63;;;10.35;51.16
5062;BME280;2351;50.812;12.872;2023-02-16T10:47:54;98667.47;;;10.35;50.74
5062;BME280;2351;50.812;12.872;2023-02-16T10:50:28;98660.50;;;10.34;50.85
5062;BME280;2351;50.812;12.872;2023-02-16T10:53:08;98661.88;;;10.40;50.64
5062;BME280;2351;50.812;12.872;2023-02-16T10:55:40;98649.75;;;10.49;50.64
5062;BME280;2351;50.812;12.872;2023-02-16T10:58:16;98656.28;;;10.56;50.53
5062;BME280;2351;50.812;12.872;2023-02-16T11:00:55;98654.13;;;10.61;50.27
5062;BME280;2351;50.812;12.872;2023-02-16T11:03:30;98655.34;;;10.57;49.47
5062;BME280;2351;50.812;12.872;2023-02-16T11:06:12;98644.47;;;10.49;49.01
5062;BME280;2351;50.812;12.872;2023-02-16T11:08:49;98645.78;;;10.54;50.20
5062;BME280;2351;50.812;12.872;2023-02-16T11:11:23;98638.81;;;10.53;49.86
5062;BME280;2351;50.812;12.872;2023-02-16T11:14:01;98647.63;;;10.65;50.90
5062;BME280;2351;50.812;12.872;2023-02-16T11:16:34;98635.78;;;10.94;51.15
5062;BME280;2351;50.812;12.872;2023-02-16T11:19:17;98628.59;;;11.19;50.60
5062;BME280;2351;50.812;12.872;2023-02-16T11:21:53;98634.53;;;11.45;51.03
5062;BME280;2351;50.812;12.872;2023-02-16T11:24:27;98628.09;;;11.70;50.43
5062;BME280;2351;50.812;12.872;2023-02-16T11:27:01;98623.25;;;11.87;50.10
5062;BME280;2351;50.812;12.872;2023-02-16T11:29:34;98623.84;;;12.13;50.25
5062;BME280;2351;50.812;12.872;2023-02-16T11:32:09;98632.41;;;12.38;49.93
5062;BME280;2351;50.812;12.872;2023-02-16T11:34:43;98619.81;;;12.52;48.12
5062;BME280;2351;50.812;12.872;2023-02-16T11:37:21;98614.25;;;12.55;48.24
5062;BME280;2351;50.812;12.872;2023-02-16T11:39:57;98614.56;;;12.61;47.64
5062;BME280;2351;50.812;12.872;2023-02-16T11:42:32;98621.16;;;12.67;46.53
5062;BME280;2351;50.812;12.872;2023-02-16T11:45:06;98617.47;;;12.58;45.84
5062;BME280;2351;50.812;12.872;2023-02-16T11:47:41;98612.75;;;12.62;45.52
5062;BME280;2351;50.812;12.872;2023-02-16T11:50:18;98613.53;;;12.53;44.73
5062;BME280;2351;50.812;12.872;2023-02-16T11:52:52;98615.88;;;12.67;45.83
5062;BME280;2351;50.812;12.872;2023-02-16T11:55:27;98607.97;;;12.77;44.42
5062;BME280;2351;50.812;12.872;2023-02-16T11:58:17;98609.19;;;12.73;44.36
5062;BME280;2351;50.812;12.872;2023-02-16T12:00:57;98605.63;;;12.62;44.11
5062;BME280;2351;50.812;12.872;2023-02-16T12:04:02;98604.69;;;12.31;44.02
5062;BME280;2351;50.812;12.872;2023-02-16T12:06:50;98609.41;;;12.27;44.77
5062;BME280;2351;50.812;12.872;2023-02-16T12:09:29;98598.75;;;12.39;45.30
5062;BME280;2351;50.812;12.872;2023-02-16T12:12:11;98603.47;;;12.35;44.80
5062;BME280;2351;50.812;12.872;2023-02-16T12:14:56;98594.41;;;12.38;44.91
5062;BME280;2351;50.812;12.872;2023-02-16T12:17:56;98595.38;;;12.37;45.27
5062;BME280;2351;50.812;12.872;2023-02-16T12:20:41;98591.97;;;12.46;45.65
5062;BME280;2351;50.812;12.872;2023-02-16T12:23:25;98598.44;;;12.53;46.04
5062;BME280;2351;50.812;12.872;2023-02-16T12:26:13;98595.28;;;12.59;45.51
5062;BME280;2351;50.812;12.872;2023-02-16T12:28:59;98588.13;;;12.39;45.88
5062;BME280;2351;50.812;12.872;2023-02-16T12:31:45;98585.72;;;12.35;46.08
5062;BME280;2351;50.812;12.872;2023-02-16T12:34:26;98586.13;;;12.31;45.74
5062;BME280;2351;50.812;12.872;2023-02-16T12:37:03;98585.66;;;12.26;45.64
5062;BME280;2351;50.812;12.872;2023-02-16T12:39:46;98584.63;;;12.05;44.83
5062;BME280;2351;50.812;12.872;2023-02-16T12:42:38;98586.00;;;12.00;45.76
5062;BME280;2351;50.812;12.872;2023-02-16T12:45:17;98587.06;;;11.97;46.16
5062;BME280;2351;50.812;12.872;2023-02-16T12:47:53;98585.25;;;11.98;45.92
5062;BME280;2351;50.812;12.872;2023-02-16T12:50:28;98589.97;;;11.83;46.12
5062;BME280;2351;50.812;12.872;2023-02-16T12:53:06;98585.44;;;11.73;46.24
5062;BME280;2351;50.812;12.872;2023-02-16T12:55:43;98571.25;;;11.52;46.71
5062;BME280;2351;50.812;12.872;2023-02-16T12:58:21;98572.56;;;11.57;46.58
5062;BME280;2351;50.812;12.872;2023-02-16T13:00:56;98582.59;;;11.54;46.91
5062;BME280;2351;50.812;12.872;2023-02-16T13:03:34;98565.72;;;11.55;47.25
5062;BME280;2351;50.812;12.872;2023-02-16T13:06:16;98568.38;;;11.55;47.39
5062;BME280;2351;50.812;12.872;2023-02-16T13:08:56;98565.19;;;11.61;48.07
5062;BME280;2351;50.812;12.872;2023-02-16T13:11:33;98569.63;;;11.72;47.86
5062;BME280;2351;50.812;12.872;2023-02-16T13:14:13;98565.16;;;11.84;47.81
5062;BME280;2351;50.812;12.872;2023-02-16T13:16:50;98564.91;;;11.87;48.09
5062;BME280;2351;50.812;12.872;2023-02-16T13:19:24;98561.75;;;11.93;48.02
5062;BME280;2351;50.812;12.872;2023-02-16T13:22:30;98564.78;;;11.88;48.05
5062;BME280;2351;50.812;12.872;2023-02-16T13:25:45;98565.84;;;11.97;47.60
5062;BME280;2351;50.812;12.872;2023-02-16T13:28:36;98557.53;;;12.02;47.64
5062;BME280;2351;50.812;12.872;2023-02-16T13:31:28;98557.56;;;11.90;46.98
5062;BME280;2351;50.812;12.872;2023-02-16T13:34:24;98559.69;;;11.97;46.92
5062;BME280;2351;50.812;12.872;2023-02-16T13:37:19;98564.63;;;11.57;46.19
5062;BME280;2351;50.812;12.872;2023-02-16T13:40:21;98558.22;;;11.60;47.45
5062;BME280;2351;50.812;12.872;2023-02-16T13:43:11;98560.59;;;11.74;47.55
5062;BME280;2351;50.812;12.872;2023-02-16T13:45:45;98553.00;;;11.81;47.28
5062;BME280;2351;50.812;12.872;2023-02-16T13:48:26;98565.91;;;11.74;47.42
5062;BME280;2351;50.812;12.872;2023-02-16T13:51:00;98557.09;;;11.74;47.04
5062;BME280;2351;50.812;12.872;2023-02-16T13:53:35;98562.06;;;11.67;47.26
5062;BME280;2351;50.812;12.872;2023-02-16T13:56:14;98563.50;;;11.60;46.92
5062;BME280;2351;50.812;12.872;2023-02-16T13:58:53;98559.34;;;11.35;47.11
5062;BME280;2351;50.812;12.872;2023-02-16T14:01:37;98558.84;;;11.29;47.22
5062;BME280;2351;50.812;12.872;2023-02-16T14:04:12;98567.03;;;11.26;47.29
5062;BME280;2351;50.812;12.872;2023-02-16T14:06:44;98566.22;;;11.03;47.10
5062;BME280;2351;50.812;12.872;2023-02-16T14:09:43;98566.72;;;11.08;47.46
5062;BME280;2351;50.812;12.872;2023-02-16T14:12:19;98555.97;;;11.10;47.47